createdAt,value
2018-02-15T00:00:02.206Z,142.30
2018-02-15T00:01:02.224Z,141.00
2018-02-15T00:02:02.222Z,139.10
2018-02-15T00:03:02.246Z,131.30
2018-02-15T00:04:02.251Z,144.80
2018-02-15T00:05:02.237Z,141.40
2018-02-15T00:06:02.249Z,136.80
2018-02-15T00:07:02.254Z,141.00
2018-02-15T00:08:02.264Z,147.70
2018-02-15T00:09:02.276Z,147.60
2018-02-15T00:10:02.284Z,137.30
2018-02-15T00:11:02.295Z,134.20
2018-02-15T00:12:02.305Z,139.10
2018-02-15T00:13:02.311Z,137.20
2018-02-15T00:14:02.324Z,131.60
2018-02-15T00:15:02.326Z,134.90
2018-02-15T00:16:02.335Z,126.00
2018-02-15T00:17:02.349Z,139.10
2018-02-15T00:18:02.354Z,135.40
2018-02-15T00:19:02.368Z,140.40
2018-02-15T00:20:02.377Z,140.60
2018-02-15T00:21:02.380Z,140.70
2018-02-15T00:22:02.397Z,141.00
2018-02-15T00:23:02.398Z,144.80
2018-02-15T00:24:02.410Z,150.90
2018-02-15T00:25:02.421Z,135.70
2018-02-15T00:26:02.413Z,137.60
2018-02-15T00:27:02.425Z,141.20
2018-02-15T00:28:02.435Z,136.40
2018-02-15T00:29:02.474Z,137.40
2018-02-15T00:30:02.452Z,132.20
2018-02-15T00:31:02.459Z,141.60
2018-02-15T00:32:02.469Z,136.60
2018-02-15T00:33:02.481Z,146.30
2018-02-15T00:34:02.481Z,139.50
2018-02-15T00:35:02.495Z,152.70
2018-02-15T00:36:02.504Z,141.40
2018-02-15T00:37:02.509Z,146.60
2018-02-15T00:38:02.524Z,134.50
2018-02-15T00:39:02.575Z,131.60
2018-02-15T00:40:02.538Z,133.10
2018-02-15T00:41:02.550Z,131.80
2018-02-15T00:42:02.553Z,132.90
2018-02-15T00:43:02.565Z,129.80
2018-02-15T00:44:02.578Z,133.10
2018-02-15T00:45:02.580Z,127.10
2018-02-15T00:46:02.610Z,134.90
2018-02-15T00:47:02.602Z,134.90
2018-02-15T00:48:02.596Z,128.80
2018-02-15T00:49:02.608Z,139.40
2018-02-15T00:50:02.611Z,134.90
2018-02-15T00:51:02.636Z,129.80
2018-02-15T00:52:02.636Z,128.40
2018-02-15T00:53:02.638Z,130.90
2018-02-15T00:54:02.650Z,138.20
2018-02-15T00:55:02.656Z,131.70
2018-02-15T00:56:02.668Z,131.40
2018-02-15T00:57:02.677Z,144.70
2018-02-15T00:58:02.684Z,147.40
2018-02-15T00:59:02.700Z,134.10
2018-02-15T01:00:02.706Z,150.80
2018-02-15T01:01:02.713Z,152.80
2018-02-15T01:02:02.722Z,162.60
2018-02-15T01:03:02.726Z,154.40
2018-02-15T01:04:02.737Z,170.00
2018-02-15T01:05:02.760Z,154.40
2018-02-15T01:06:02.756Z,158.70
2018-02-15T01:07:02.769Z,154.60
2018-02-15T01:08:02.770Z,164.00
2018-02-15T01:09:02.783Z,155.70
2018-02-15T01:10:02.784Z,149.30
2018-02-15T01:11:02.791Z,149.50
2018-02-15T01:12:02.797Z,146.90
2018-02-15T01:13:02.815Z,146.40
2018-02-15T01:14:02.813Z,155.70
2018-02-15T01:15:02.825Z,153.20
2018-02-15T01:16:02.835Z,142.60
2018-02-15T01:17:02.842Z,147.70
2018-02-15T01:18:02.857Z,139.80
2018-02-15T01:19:02.863Z,135.00
2018-02-15T01:20:02.868Z,137.30
2018-02-15T01:21:02.881Z,134.50
2018-02-15T01:22:02.884Z,139.70
2018-02-15T01:23:02.905Z,143.00
2018-02-15T01:24:02.906Z,142.20
2018-02-15T01:25:02.914Z,148.20
2018-02-15T01:26:02.929Z,143.50
2018-02-15T01:27:02.917Z,151.00
2018-02-15T01:28:02.930Z,151.20
2018-02-15T01:29:02.938Z,137.60
2018-02-15T01:30:02.945Z,150.90
2018-02-15T01:31:02.959Z,147.60
2018-02-15T01:32:02.970Z,144.20
2018-02-15T01:33:02.970Z,152.90
2018-02-15T01:34:02.983Z,150.30
2018-02-15T01:35:02.987Z,153.90
2018-02-15T01:36:03.001Z,148.50
2018-02-15T01:37:03.012Z,145.90
2018-02-15T01:38:03.015Z,147.60
2018-02-15T01:39:03.028Z,145.90
2018-02-15T01:40:03.039Z,150.00
2018-02-15T01:41:03.056Z,159.50
2018-02-15T01:42:03.052Z,150.00
2018-02-15T01:43:03.063Z,151.60
2018-02-15T01:44:03.072Z,142.40
2018-02-15T01:45:03.093Z,145.80
2018-02-15T01:46:03.095Z,153.80
2018-02-15T01:47:03.097Z,154.90
2018-02-15T01:48:03.102Z,160.00
2018-02-15T01:49:03.119Z,146.50
2018-02-15T01:50:03.114Z,151.10
2018-02-15T01:51:03.128Z,160.50
2018-02-15T01:52:03.132Z,160.20
2018-02-15T01:53:03.137Z,169.00
2018-02-15T01:54:03.146Z,173.30
2018-02-15T01:55:03.153Z,172.20
2018-02-15T01:56:03.166Z,166.90
2018-02-15T01:57:03.177Z,173.00
2018-02-15T01:58:03.179Z,177.90
2018-02-15T01:59:03.196Z,179.60
2018-02-15T02:00:03.205Z,171.30
2018-02-15T02:01:03.208Z,180.50
2018-02-15T02:02:03.220Z,187.90
2018-02-15T02:03:03.228Z,177.30
2018-02-15T02:04:03.234Z,181.40
2018-02-15T02:05:03.248Z,180.00
2018-02-15T02:06:03.249Z,187.90
2018-02-15T02:07:03.268Z,176.00
2018-02-15T02:08:03.279Z,187.70
2018-02-15T02:09:03.277Z,179.20
2018-02-15T02:10:03.292Z,194.40
2018-02-15T02:11:03.297Z,165.70
2018-02-15T02:12:03.306Z,179.20
2018-02-15T02:13:03.322Z,177.50
2018-02-15T02:14:03.315Z,172.50
2018-02-15T02:15:03.324Z,182.20
2018-02-15T02:16:03.335Z,176.60
2018-02-15T02:17:03.336Z,176.50
2018-02-15T02:18:03.353Z,182.00
2018-02-15T02:19:03.352Z,175.40
2018-02-15T02:20:03.362Z,174.80
2018-02-15T02:21:03.375Z,182.70
2018-02-15T02:22:03.385Z,186.40
2018-02-15T02:23:03.395Z,177.90
2018-02-15T02:24:03.405Z,162.10
2018-02-15T02:25:03.423Z,158.50
2018-02-15T02:26:03.420Z,146.00
2018-02-15T02:27:03.427Z,144.90
2018-02-15T02:28:03.437Z,134.00
2018-02-15T02:29:03.452Z,139.40
2018-02-15T02:30:03.457Z,139.70
2018-02-15T02:31:03.465Z,139.00
2018-02-15T02:32:03.476Z,128.20
2018-02-15T02:33:03.579Z,136.90
2018-02-15T02:34:03.494Z,133.10
2018-02-15T02:35:03.510Z,130.30
2018-02-15T02:36:03.499Z,132.70
2018-02-15T02:37:03.508Z,131.10
2018-02-15T02:38:03.515Z,127.00
2018-02-15T02:39:03.523Z,128.30
2018-02-15T02:40:03.531Z,131.70
2018-02-15T02:41:03.542Z,132.00
2018-02-15T02:42:03.555Z,134.50
2018-02-15T02:43:03.559Z,131.70
2018-02-15T02:44:03.565Z,131.70
2018-02-15T02:45:03.578Z,136.30
2018-02-15T02:46:03.602Z,140.10
2018-02-15T02:47:03.596Z,140.10
2018-02-15T02:48:03.603Z,148.30
2018-02-15T02:49:03.614Z,138.80
2018-02-15T02:50:03.622Z,141.90
2018-02-15T02:51:03.629Z,142.70
2018-02-15T02:52:03.638Z,140.60
2018-02-15T02:53:03.650Z,133.70
2018-02-15T02:54:03.652Z,138.70
2018-02-15T02:55:03.666Z,153.40
2018-02-15T02:56:03.679Z,163.00
2018-02-15T02:57:03.678Z,160.10
2018-02-15T02:58:03.695Z,152.20
2018-02-15T02:59:03.699Z,158.60
2018-02-15T03:00:03.707Z,161.60
2018-02-15T03:01:03.710Z,169.70
2018-02-15T03:02:03.725Z,175.40
2018-02-15T03:03:03.729Z,167.70
2018-02-15T03:04:03.735Z,171.80
2018-02-15T03:05:03.741Z,177.20
2018-02-15T03:06:03.754Z,176.30
2018-02-15T03:07:03.762Z,167.50
2018-02-15T03:08:03.768Z,167.10
2018-02-15T03:09:03.782Z,175.90
2018-02-15T03:10:03.783Z,179.90
2018-02-15T03:11:03.796Z,174.30
2018-02-15T03:12:03.805Z,161.60
2018-02-15T03:13:03.810Z,158.20
2018-02-15T03:14:03.822Z,160.50
2018-02-15T03:15:03.832Z,158.00
2018-02-15T03:16:03.834Z,147.20
2018-02-15T03:17:03.848Z,141.90
2018-02-15T03:18:03.859Z,137.70
2018-02-15T03:19:03.869Z,135.10
2018-02-15T03:20:03.874Z,136.30
2018-02-15T03:21:03.880Z,137.90
2018-02-15T03:22:03.895Z,140.10
2018-02-15T03:23:03.888Z,143.60
2018-02-15T03:24:03.896Z,158.20
2018-02-15T03:25:03.912Z,141.30
2018-02-15T03:26:03.917Z,136.00
2018-02-15T03:27:03.924Z,145.20
2018-02-15T03:28:03.932Z,145.50
2018-02-15T03:29:03.945Z,154.80
2018-02-15T03:30:03.955Z,153.30
2018-02-15T03:31:03.963Z,147.50
2018-02-15T03:32:03.968Z,154.30
2018-02-15T03:33:03.981Z,149.20
2018-02-15T03:34:03.996Z,149.10
2018-02-15T03:35:03.998Z,167.10
2018-02-15T03:36:04.008Z,138.80
2018-02-15T03:37:04.013Z,139.20
2018-02-15T03:38:04.028Z,134.80
2018-02-15T03:39:04.027Z,134.40
2018-02-15T03:40:04.024Z,144.40
2018-02-15T03:41:04.037Z,147.50
2018-02-15T03:42:04.045Z,133.20
2018-02-15T03:43:04.057Z,136.60
2018-02-15T03:44:04.069Z,138.10
2018-02-15T03:45:04.069Z,118.20
2018-02-15T03:46:04.085Z,125.40
2018-02-15T03:47:04.089Z,117.50
2018-02-15T03:48:04.102Z,123.50
2018-02-15T03:49:04.108Z,117.80
2018-02-15T03:50:04.119Z,122.00
2018-02-15T03:51:04.123Z,121.60
2018-02-15T03:52:04.133Z,127.40
2018-02-15T03:53:04.150Z,123.80
2018-02-15T03:54:04.148Z,130.90
2018-02-15T03:55:04.160Z,134.30
2018-02-15T03:56:04.163Z,141.40
2018-02-15T03:57:04.163Z,135.80
2018-02-15T03:58:04.179Z,133.40
2018-02-15T03:59:04.185Z,133.90
2018-02-15T04:00:04.191Z,139.60
2018-02-15T04:01:04.207Z,138.20
2018-02-15T04:02:04.206Z,124.70
2018-02-15T04:03:04.219Z,131.90
2018-02-15T04:04:04.229Z,133.60
2018-02-15T04:05:04.234Z,143.30
2018-02-15T04:06:04.246Z,161.70
2018-02-15T04:07:04.254Z,152.50
2018-02-15T04:08:04.267Z,154.10
2018-02-15T04:09:04.272Z,161.00
2018-02-15T04:10:04.280Z,154.90
2018-02-15T04:11:04.283Z,156.10
2018-02-15T04:12:04.290Z,143.50
2018-02-15T04:13:04.294Z,155.60
2018-02-15T04:14:04.306Z,152.90
2018-02-15T04:15:04.310Z,163.20
2018-02-15T04:16:04.324Z,156.70
2018-02-15T04:17:04.335Z,164.20
2018-02-15T04:18:04.340Z,142.70
2018-02-15T04:19:04.354Z,153.20
2018-02-15T04:20:04.360Z,159.50
2018-02-15T04:21:04.365Z,153.50
2018-02-15T04:22:04.378Z,159.40
2018-02-15T04:23:04.397Z,159.60
2018-02-15T04:24:04.380Z,151.70
2018-02-15T04:25:04.393Z,163.50
2018-02-15T04:26:04.400Z,155.30
2018-02-15T04:27:04.428Z,157.90
2018-02-15T04:28:04.419Z,153.90
2018-02-15T04:29:04.423Z,154.20
2018-02-15T04:30:04.436Z,142.90
2018-02-15T04:31:04.444Z,144.30
2018-02-15T04:32:04.450Z,142.40
2018-02-15T04:33:04.465Z,140.40
2018-02-15T04:34:04.468Z,141.70
2018-02-15T04:35:04.483Z,142.20
2018-02-15T04:36:04.492Z,139.60
2018-02-15T04:37:04.493Z,127.10
2018-02-15T04:38:04.505Z,123.50
2018-02-15T04:39:04.511Z,118.90
2018-02-15T04:40:04.511Z,124.00
2018-02-15T04:41:04.520Z,127.80
2018-02-15T04:42:04.532Z,124.60
2018-02-15T04:43:04.541Z,111.80
2018-02-15T04:44:04.549Z,123.80
2018-02-15T04:45:04.553Z,121.00
2018-02-15T04:46:04.563Z,117.60
2018-02-15T04:47:04.575Z,116.90
2018-02-15T04:48:04.580Z,117.70
2018-02-15T04:49:04.591Z,125.20
2018-02-15T04:50:04.603Z,118.00
2018-02-15T04:51:04.610Z,123.00
2018-02-15T04:52:04.620Z,116.30
2018-02-15T04:53:04.624Z,113.80
2018-02-15T04:54:04.643Z,116.80
2018-02-15T04:55:04.640Z,118.40
2018-02-15T04:56:04.637Z,116.40
2018-02-15T04:57:04.656Z,113.70
2018-02-15T04:58:04.656Z,108.80
2018-02-15T04:59:04.670Z,121.00
2018-02-15T05:00:04.678Z,106.90
2018-02-15T05:01:04.682Z,120.00
2018-02-15T05:02:04.694Z,125.30
2018-02-15T05:03:04.704Z,107.70
2018-02-15T05:04:04.720Z,117.20
2018-02-15T05:05:04.722Z,119.30
2018-02-15T05:06:04.727Z,118.00
2018-02-15T05:07:04.742Z,117.20
2018-02-15T05:08:04.750Z,115.40
2018-02-15T05:09:04.753Z,123.30
2018-02-15T05:10:04.771Z,118.40
2018-02-15T05:11:04.771Z,130.60
2018-02-15T05:12:04.780Z,117.30
2018-02-15T05:13:04.782Z,115.30
2018-02-15T05:14:04.784Z,120.20
2018-02-15T05:15:04.798Z,114.40
2018-02-15T05:16:04.807Z,113.20
2018-02-15T05:17:04.812Z,112.10
2018-02-15T05:18:04.865Z,109.70
2018-02-15T05:19:04.832Z,106.20
2018-02-15T05:20:04.842Z,107.00
2018-02-15T05:21:04.853Z,111.90
2018-02-15T05:22:04.855Z,100.90
2018-02-15T05:23:04.875Z,103.50
2018-02-15T05:24:04.877Z,102.50
2018-02-15T05:25:04.881Z,97.40
2018-02-15T05:26:04.897Z,99.60
2018-02-15T05:27:04.902Z,107.50
2018-02-15T05:28:04.909Z,116.70
2018-02-15T05:29:04.921Z,107.90
2018-02-15T05:30:04.917Z,108.00
2018-02-15T05:31:04.934Z,105.80
2018-02-15T05:32:04.939Z,108.30
2018-02-15T05:33:04.943Z,117.40
2018-02-15T05:34:04.958Z,109.90
2018-02-15T05:35:04.959Z,113.90
2018-02-15T05:36:04.966Z,115.50
2018-02-15T05:37:04.983Z,111.10
2018-02-15T05:38:04.986Z,112.60
2018-02-15T05:39:05.004Z,114.40
2018-02-15T05:40:05.010Z,108.90
2018-02-15T05:41:05.013Z,114.70
2018-02-15T05:42:05.028Z,108.40
2018-02-15T05:43:05.032Z,120.00
2018-02-15T05:44:05.053Z,113.00
2018-02-15T05:45:05.055Z,113.80
2018-02-15T05:46:05.061Z,114.20
2018-02-15T05:47:05.072Z,110.20
2018-02-15T05:48:05.065Z,105.40
2018-02-15T05:49:05.073Z,106.00
2018-02-15T05:50:05.088Z,124.30
2018-02-15T05:51:05.090Z,110.90
2018-02-15T05:52:05.101Z,106.00
2018-02-15T05:53:05.115Z,117.30
2018-02-15T05:54:05.115Z,112.70
2018-02-15T05:55:05.130Z,112.60
2018-02-15T05:56:05.137Z,111.30
2018-02-15T05:57:05.144Z,113.00
2018-02-15T05:58:05.151Z,110.50
2018-02-15T05:59:05.163Z,123.80
2018-02-15T06:00:05.173Z,114.50
2018-02-15T06:01:05.177Z,110.00
2018-02-15T06:02:05.192Z,112.10
2018-02-15T06:03:05.196Z,118.40
2018-02-15T06:04:05.195Z,119.50
2018-02-15T06:05:05.211Z,120.60
2018-02-15T06:06:05.215Z,119.40
2018-02-15T06:07:05.225Z,118.50
2018-02-15T06:08:05.230Z,104.90
2018-02-15T06:09:05.237Z,112.70
2018-02-15T06:10:05.251Z,111.90
2018-02-15T06:11:05.256Z,109.30
2018-02-15T06:12:05.264Z,118.10
2018-02-15T06:13:05.277Z,107.40
2018-02-15T06:14:05.283Z,110.30
2018-02-15T06:15:05.296Z,116.90
2018-02-15T06:16:05.303Z,111.30
2018-02-15T06:17:05.309Z,114.30
2018-02-15T06:18:05.327Z,116.90
2018-02-15T06:19:05.325Z,119.50
2018-02-15T06:20:05.323Z,114.90
2018-02-15T06:21:05.334Z,123.70
2018-02-15T06:22:05.344Z,115.00
2018-02-15T06:23:05.356Z,121.10
2018-02-15T06:24:05.364Z,119.40
2018-02-15T06:25:05.369Z,116.40
2018-02-15T06:26:05.378Z,127.80
2018-02-15T06:27:05.387Z,128.00
2018-02-15T06:28:05.400Z,122.50
2018-02-15T06:29:05.406Z,113.60
2018-02-15T06:30:05.410Z,116.40
2018-02-15T06:31:05.429Z,118.40
2018-02-15T06:32:05.431Z,120.60
2018-02-15T06:33:05.450Z,118.30
2018-02-15T06:34:05.454Z,124.50
2018-02-15T06:35:05.456Z,116.60
2018-02-15T06:36:05.465Z,114.70
2018-02-15T06:37:05.466Z,120.70
2018-02-15T06:38:05.469Z,112.40
2018-02-15T06:39:05.482Z,117.50
2018-02-15T06:40:05.494Z,102.00
2018-02-15T06:41:05.501Z,109.50
2018-02-15T06:42:05.510Z,110.90
2018-02-15T06:43:05.519Z,113.00
2018-02-15T06:44:05.530Z,115.90
2018-02-15T06:45:05.538Z,116.80
2018-02-15T06:46:05.544Z,110.80
2018-02-15T06:47:05.556Z,115.80
2018-02-15T06:48:05.563Z,116.90
2018-02-15T06:49:05.570Z,117.50
2018-02-15T06:50:05.580Z,111.40
2018-02-15T06:51:05.588Z,117.80
2018-02-15T06:52:05.593Z,107.10
2018-02-15T06:53:05.649Z,117.00
2018-02-15T06:54:05.612Z,110.80
2018-02-15T06:55:05.614Z,118.70
2018-02-15T06:56:05.622Z,105.50
2018-02-15T06:57:05.628Z,106.50
2018-02-15T06:58:05.638Z,121.30
2018-02-15T06:59:05.647Z,110.70
2018-02-15T07:00:05.652Z,112.30
2018-02-15T07:01:05.706Z,116.50
2018-02-15T07:02:05.674Z,121.30
2018-02-15T07:03:05.685Z,121.10
2018-02-15T07:04:05.697Z,111.40
2018-02-15T07:05:05.698Z,119.00
2018-02-15T07:06:05.714Z,124.10
2018-02-15T07:07:05.714Z,121.80
2018-02-15T07:08:05.727Z,119.50
2018-02-15T07:09:05.736Z,114.20
2018-02-15T07:10:05.743Z,114.40
2018-02-15T07:11:05.755Z,112.00
2018-02-15T07:12:05.768Z,112.60
2018-02-15T07:13:05.782Z,117.70
2018-02-15T07:14:05.780Z,119.70
2018-02-15T07:15:05.790Z,121.00
2018-02-15T07:16:05.798Z,122.10
2018-02-15T07:17:05.813Z,125.50
2018-02-15T07:18:05.812Z,127.70
2018-02-15T07:19:05.824Z,124.50
2018-02-15T07:20:05.825Z,121.70
2018-02-15T07:21:05.826Z,122.80
2018-02-15T07:22:05.840Z,126.90
2018-02-15T07:23:05.848Z,125.80
2018-02-15T07:24:05.854Z,125.20
2018-02-15T07:25:05.868Z,113.50
2018-02-15T07:26:05.878Z,132.80
2018-02-15T07:27:05.889Z,118.40
2018-02-15T07:28:05.896Z,124.70
2018-02-15T07:29:05.897Z,124.00
2018-02-15T07:30:05.913Z,121.40
2018-02-15T07:31:05.917Z,119.60
2018-02-15T07:32:05.925Z,117.40
2018-02-15T07:33:05.941Z,119.70
2018-02-15T07:34:05.944Z,116.90
2018-02-15T07:35:05.956Z,119.10
2018-02-15T07:36:05.965Z,115.40
2018-02-15T07:37:05.970Z,104.00
2018-02-15T07:38:05.982Z,106.40
2018-02-15T07:39:05.994Z,108.30
2018-02-15T07:40:05.996Z,109.60
2018-02-15T07:41:06.009Z,111.70
2018-02-15T07:42:06.016Z,112.40
2018-02-15T07:43:06.028Z,114.80
2018-02-15T07:44:06.064Z,102.70
2018-02-15T07:45:06.041Z,116.40
2018-02-15T07:46:06.053Z,112.60
2018-02-15T07:47:06.061Z,111.10
2018-02-15T07:48:06.065Z,107.10
2018-02-15T07:49:06.082Z,107.70
2018-02-15T07:50:06.087Z,105.40
2018-02-15T07:51:06.100Z,112.40
2018-02-15T07:52:06.109Z,115.10
2018-02-15T07:53:06.111Z,113.10
2018-02-15T07:54:06.127Z,117.90
2018-02-15T07:55:06.130Z,122.90
2018-02-15T07:56:06.138Z,113.80
2018-02-15T07:57:06.153Z,112.70
2018-02-15T07:58:06.167Z,108.00
2018-02-15T07:59:06.173Z,112.40
2018-02-15T08:00:06.183Z,118.20
2018-02-15T08:01:06.196Z,103.30
2018-02-15T08:02:06.210Z,104.80
2018-02-15T08:03:06.217Z,104.70
2018-02-15T08:04:06.229Z,109.00
2018-02-15T08:05:06.239Z,102.50
2018-02-15T08:06:06.244Z,113.20
2018-02-15T08:07:06.254Z,108.10
2018-02-15T08:08:06.261Z,108.30
2018-02-15T08:09:06.272Z,114.30
2018-02-15T08:10:06.278Z,110.20
2018-02-15T08:11:06.286Z,111.20
2018-02-15T08:12:06.296Z,104.80
2018-02-15T08:13:06.301Z,98.90
2018-02-15T08:14:06.317Z,101.20
2018-02-15T08:15:06.333Z,105.00
2018-02-15T08:16:06.345Z,90.90
2018-02-15T08:17:06.359Z,106.90
2018-02-15T08:18:06.360Z,108.40
2018-02-15T08:19:06.372Z,101.80
2018-02-15T08:20:06.380Z,97.90
2018-02-15T08:21:06.384Z,95.40
2018-02-15T08:22:06.397Z,102.40
2018-02-15T08:23:06.409Z,94.70
2018-02-15T08:24:06.410Z,100.30
2018-02-15T08:25:06.435Z,97.10
2018-02-15T08:26:06.450Z,97.10
2018-02-15T08:27:06.462Z,92.30
2018-02-15T08:28:06.466Z,93.10
2018-02-15T08:29:06.469Z,93.70
2018-02-15T08:30:06.481Z,92.50
2018-02-15T08:31:06.492Z,91.00
2018-02-15T08:32:06.499Z,85.60
2018-02-15T08:33:06.518Z,89.00
2018-02-15T08:34:06.515Z,89.10
2018-02-15T08:35:06.546Z,97.30
2018-02-15T08:36:06.548Z,95.20
2018-02-15T08:37:06.556Z,87.40
2018-02-15T08:38:06.567Z,93.70
2018-02-15T08:39:06.576Z,88.00
2018-02-15T08:40:06.581Z,93.90
2018-02-15T08:41:06.598Z,86.70
2018-02-15T08:42:06.605Z,87.00
2018-02-15T08:43:06.626Z,87.20
2018-02-15T08:44:06.634Z,85.30
2018-02-15T08:45:06.639Z,90.10
2018-02-15T08:46:06.652Z,85.00
2018-02-15T08:47:06.659Z,84.00
2018-02-15T08:48:06.664Z,73.30
2018-02-15T08:49:06.677Z,81.60
2018-02-15T08:50:06.699Z,76.00
2018-02-15T08:51:06.697Z,81.40
2018-02-15T08:52:06.765Z,77.30
2018-02-15T08:53:06.726Z,81.60
2018-02-15T08:54:06.738Z,82.30
2018-02-15T08:55:06.737Z,74.60
2018-02-15T08:56:06.749Z,80.50
2018-02-15T08:57:06.762Z,78.50
2018-02-15T08:58:06.767Z,78.90
2018-02-15T08:59:06.785Z,79.10
2018-02-15T09:00:06.792Z,79.20
2018-02-15T09:01:06.805Z,78.80
2018-02-15T09:02:06.825Z,78.10
2018-02-15T09:03:06.821Z,78.90
2018-02-15T09:04:06.835Z,77.90
2018-02-15T09:05:06.842Z,74.30
2018-02-15T09:06:06.849Z,80.20
2018-02-15T09:07:06.863Z,77.30
2018-02-15T09:08:06.872Z,82.60
2018-02-15T09:09:06.875Z,75.70
2018-02-15T09:10:06.895Z,75.90
2018-02-15T09:11:06.893Z,86.00
2018-02-15T09:12:06.902Z,74.90
2018-02-15T09:13:06.930Z,83.60
2018-02-15T09:14:06.933Z,76.10
2018-02-15T09:15:06.946Z,74.30
2018-02-15T09:16:06.955Z,69.90
2018-02-15T09:17:06.964Z,75.00
2018-02-15T09:18:06.976Z,76.90
2018-02-15T09:19:06.975Z,77.50
2018-02-15T09:20:06.989Z,73.40
2018-02-15T09:21:07.005Z,72.40
2018-02-15T09:22:07.006Z,74.30
2018-02-15T09:23:07.029Z,68.90
2018-02-15T09:24:07.040Z,68.20
2018-02-15T09:25:07.047Z,70.90
2018-02-15T09:26:07.058Z,73.50
2018-02-15T09:27:07.105Z,69.00
2018-02-15T09:28:07.071Z,70.80
2018-02-15T09:29:07.082Z,72.10
2018-02-15T09:30:07.085Z,74.30
2018-02-15T09:31:07.098Z,72.40
2018-02-15T09:32:07.108Z,70.80
2018-02-15T09:33:07.114Z,83.20
2018-02-15T09:34:07.141Z,77.90
2018-02-15T09:35:07.145Z,75.40
2018-02-15T09:36:07.160Z,76.40
2018-02-15T09:37:07.171Z,72.70
2018-02-15T09:38:07.169Z,67.50
2018-02-15T09:39:07.187Z,68.60
2018-02-15T09:40:07.192Z,69.60
2018-02-15T09:41:07.197Z,66.10
2018-02-15T09:42:07.216Z,68.00
2018-02-15T09:43:07.227Z,69.60
2018-02-15T09:44:07.236Z,67.30
2018-02-15T09:45:07.248Z,71.50
2018-02-15T09:46:07.259Z,73.40
2018-02-15T09:47:07.269Z,64.00
2018-02-15T09:48:07.277Z,65.90
2018-02-15T09:49:07.282Z,63.10
2018-02-15T09:50:07.301Z,69.80
2018-02-15T09:51:07.310Z,65.30
2018-02-15T09:52:07.307Z,65.70
2018-02-15T09:53:07.333Z,71.20
2018-02-15T09:54:07.338Z,69.40
2018-02-15T09:55:07.352Z,66.60
2018-02-15T09:56:07.360Z,67.00
2018-02-15T09:57:07.367Z,63.20
2018-02-15T09:58:07.382Z,60.20
2018-02-15T09:59:07.383Z,68.00
2018-02-15T10:00:07.396Z,59.60
2018-02-15T10:01:07.407Z,64.00
2018-02-15T10:02:07.409Z,59.10
2018-02-15T10:03:07.433Z,63.20
2018-02-15T10:04:07.442Z,61.20
2018-02-15T10:05:07.452Z,64.00
2018-02-15T10:06:07.462Z,61.20
2018-02-15T10:07:07.467Z,60.90
2018-02-15T10:08:07.475Z,58.30
2018-02-15T10:09:07.491Z,59.40
2018-02-15T10:10:07.491Z,53.90
2018-02-15T10:11:07.504Z,53.70
2018-02-15T10:12:07.514Z,54.60
2018-02-15T10:13:07.519Z,57.40
2018-02-15T10:14:07.540Z,52.60
2018-02-15T10:15:07.560Z,57.90
2018-02-15T10:16:07.562Z,55.50
2018-02-15T10:17:07.572Z,54.70
2018-02-15T10:18:07.581Z,52.70
2018-02-15T10:19:07.589Z,56.00
2018-02-15T10:20:07.595Z,58.20
2018-02-15T10:21:07.609Z,57.50
2018-02-15T10:22:07.618Z,57.80
2018-02-15T10:23:07.637Z,51.50
2018-02-15T10:24:07.650Z,60.10
2018-02-15T10:25:07.651Z,56.60
2018-02-15T10:26:07.667Z,51.30
2018-02-15T10:27:07.675Z,54.70
2018-02-15T10:28:07.679Z,48.30
2018-02-15T10:29:07.692Z,61.50
2018-02-15T10:30:07.697Z,54.90
2018-02-15T10:31:07.711Z,53.10
2018-02-15T10:32:07.723Z,47.20
2018-02-15T10:33:07.735Z,49.90
2018-02-15T10:34:07.748Z,62.80
2018-02-15T10:35:07.756Z,52.30
2018-02-15T10:36:07.760Z,50.60
2018-02-15T10:37:07.779Z,52.70
2018-02-15T10:38:07.779Z,55.30
2018-02-15T10:39:07.794Z,52.00
2018-02-15T10:40:07.805Z,50.70
2018-02-15T10:41:07.819Z,52.40
2018-02-15T10:42:07.835Z,51.20
2018-02-15T10:43:07.834Z,52.60
2018-02-15T10:44:07.848Z,59.10
2018-02-15T10:45:07.856Z,49.80
2018-02-15T10:46:07.861Z,58.90
2018-02-15T10:47:07.874Z,47.50
2018-02-15T10:48:07.883Z,49.00
2018-02-15T10:49:07.889Z,46.20
2018-02-15T10:50:07.916Z,47.80
2018-02-15T10:51:07.959Z,56.30
2018-02-15T10:52:07.930Z,58.70
2018-02-15T10:53:07.948Z,46.70
2018-02-15T10:54:07.950Z,54.90
2018-02-15T10:55:07.958Z,51.40
2018-02-15T10:56:07.976Z,52.00
2018-02-15T10:57:07.984Z,52.10
2018-02-15T10:58:08.000Z,49.50
2018-02-15T10:59:08.008Z,48.70
2018-02-15T11:00:08.013Z,50.90
2018-02-15T11:01:08.026Z,50.80
2018-02-15T11:02:08.045Z,47.80
2018-02-15T11:03:08.058Z,50.40
2018-02-15T11:04:08.067Z,45.90
2018-02-15T11:05:08.071Z,52.70
2018-02-15T11:06:08.087Z,55.40
2018-02-15T11:07:08.097Z,49.20
2018-02-15T11:08:08.109Z,55.20
2018-02-15T11:09:08.119Z,56.00
2018-02-15T11:10:08.141Z,46.70
2018-02-15T11:11:08.143Z,52.20
2018-02-15T11:12:08.161Z,48.60
2018-02-15T11:13:08.170Z,51.10
2018-02-15T11:14:08.176Z,55.40
2018-02-15T11:15:08.185Z,51.50
2018-02-15T11:16:08.192Z,57.00
2018-02-15T11:17:08.219Z,52.10
2018-02-15T11:18:08.224Z,52.30
2018-02-15T11:19:08.240Z,48.90
2018-02-15T11:20:08.247Z,53.20
2018-02-15T11:21:08.269Z,53.00
2018-02-15T11:22:08.274Z,55.10
2018-02-15T11:23:08.277Z,48.50
2018-02-15T11:24:08.294Z,45.10
2018-02-15T11:25:08.316Z,46.80
2018-02-15T11:26:08.319Z,52.20
2018-02-15T11:27:08.334Z,47.20
2018-02-15T11:28:08.354Z,48.00
2018-02-15T11:29:08.365Z,46.20
2018-02-15T11:30:08.369Z,46.30
2018-02-15T11:31:08.380Z,51.40
2018-02-15T11:32:08.395Z,50.80
2018-02-15T11:33:08.408Z,54.20
2018-02-15T11:34:08.413Z,49.30
2018-02-15T11:35:08.442Z,48.20
2018-02-15T11:36:08.448Z,47.70
2018-02-15T11:37:08.453Z,55.60
2018-02-15T11:38:08.468Z,51.50
2018-02-15T11:39:08.489Z,50.00
2018-02-15T11:40:08.494Z,51.50
2018-02-15T11:41:08.506Z,46.20
2018-02-15T11:42:08.521Z,50.40
2018-02-15T11:43:08.539Z,50.70
2018-02-15T11:44:08.550Z,49.50
2018-02-15T11:45:08.560Z,51.60
2018-02-15T11:46:08.575Z,49.90
2018-02-15T11:47:08.585Z,49.80
2018-02-15T11:48:08.605Z,48.70
2018-02-15T11:49:08.616Z,51.60
2018-02-15T11:50:08.625Z,48.70
2018-02-15T11:51:08.647Z,51.80
2018-02-15T11:52:08.655Z,50.60
2018-02-15T11:53:08.661Z,49.30
2018-02-15T11:54:08.682Z,49.50
2018-02-15T11:55:08.687Z,48.10
2018-02-15T11:56:08.709Z,48.00
2018-02-15T11:57:08.726Z,52.90
2018-02-15T11:58:08.743Z,49.80
2018-02-15T11:59:08.754Z,50.60
2018-02-15T12:00:08.762Z,51.20
2018-02-15T12:01:08.770Z,46.90
2018-02-15T12:02:08.792Z,47.50
2018-02-15T12:03:08.795Z,50.00
2018-02-15T12:04:08.805Z,58.50
2018-02-15T12:05:08.836Z,61.70
2018-02-15T12:06:08.834Z,52.30
2018-02-15T12:07:08.848Z,47.90
2018-02-15T12:08:08.869Z,49.20
2018-02-15T12:09:08.879Z,53.20
2018-02-15T12:10:08.890Z,49.50
2018-02-15T12:11:08.908Z,50.90
2018-02-15T12:12:08.933Z,49.10
2018-02-15T12:13:08.928Z,48.50
2018-02-15T12:14:08.947Z,49.20
2018-02-15T12:15:08.958Z,55.20
2018-02-15T12:16:08.981Z,52.50
2018-02-15T12:17:08.983Z,48.20
2018-02-15T12:18:09.002Z,49.80
2018-02-15T12:19:09.015Z,48.00
2018-02-15T12:20:09.025Z,46.90
2018-02-15T12:21:09.046Z,46.50
2018-02-15T12:22:09.056Z,64.10
2018-02-15T12:23:09.062Z,52.20
2018-02-15T12:24:09.083Z,49.80
2018-02-15T12:25:09.096Z,52.50
2018-02-15T12:26:09.119Z,44.80
2018-02-15T12:27:09.128Z,52.70
2018-02-15T12:28:09.138Z,50.90
2018-02-15T12:29:09.154Z,50.40
2018-02-15T12:30:09.168Z,49.60
2018-02-15T12:31:09.182Z,55.20
2018-02-15T12:32:09.190Z,51.80
2018-02-15T12:33:09.206Z,50.30
2018-02-15T12:34:09.223Z,55.90
2018-02-15T12:35:09.236Z,52.40
2018-02-15T12:36:09.262Z,51.10